TimeCST,TemperatureF,Dew PointF,Humidity,Sea Level PressureIn,VisibilityMPH,Wind Direction,Wind SpeedMPH,Gust SpeedMPH,PrecipitationIn,Events,Conditions,WindDirDegrees,DateUTC
12:04 AM,5.0,-5.1,63,30.13,10.0,WNW,12.7,24.2,N/A,,Scattered Clouds,290,2013-12-09 06:04:00
12:56 AM,1.9,-8.0,63,30.25,10.0,WNW,12.7,-,N/A,,Clear,290,2013-12-09 06:56:00
1:56 AM,-0.9,-9.9,66,30.25,10.0,WNW,10.4,-,N/A,,Clear,290,2013-12-09 07:56:00
2:56 AM,1.0,-9.0,63,30.25,10.0,NW,16.1,-,N/A,,Clear,320,2013-12-09 08:56:00
3:56 AM,-0.0,-9.0,66,30.26,10.0,WNW,10.4,-,N/A,,Clear,300,2013-12-09 09:56:00
4:56 AM,-2.0,-9.9,69,30.29,10.0,WNW,11.5,-,N/A,,Clear,290,2013-12-09 10:56:00
5:56 AM,-2.9,-11.0,68,30.32,10.0,West,9.2,-,N/A,,Clear,280,2013-12-09 11:56:00
6:56 AM,-5.1,-11.9,72,30.33,10.0,WNW,8.1,-,N/A,,Clear,290,2013-12-09 12:56:00
7:56 AM,-5.1,-11.0,76,30.35,10.0,WNW,8.1,-,N/A,,Clear,290,2013-12-09 13:56:00
8:56 AM,-0.9,-9.0,69,30.36,10.0,West,6.9,-,N/A,,Clear,280,2013-12-09 14:56:00
9:56 AM,1.9,-7.1,66,30.37,10.0,West,11.5,-,N/A,,Clear,270,2013-12-09 15:56:00
10:56 AM,5.0,-6.0,61,30.36,10.0,West,10.4,-,N/A,,Clear,270,2013-12-09 16:56:00
11:56 AM,8.1,-5.1,55,30.34,10.0,WSW,9.2,-,N/A,,Clear,250,2013-12-09 17:56:00
12:56 PM,10.0,-2.0,58,30.32,10.0,WSW,11.5,-,N/A,,Clear,240,2013-12-09 18:56:00
1:56 PM,12.0,-0.0,59,30.28,10.0,SW,11.5,-,N/A,,Clear,230,2013-12-09 19:56:00
2:56 PM,14.0,1.9,59,30.24,10.0,SW,13.8,-,N/A,,Clear,230,2013-12-09 20:56:00
3:56 PM,14.0,3.0,62,30.20,10.0,South,10.4,-,N/A,,Clear,190,2013-12-09 21:56:00
4:56 PM,10.9,1.9,67,30.21,10.0,South,11.5,-,N/A,,Clear,180,2013-12-09 22:56:00
5:56 PM,10.0,1.0,67,30.19,10.0,South,13.8,-,N/A,,Clear,180,2013-12-09 23:56:00
6:56 PM,10.0,1.9,70,30.14,10.0,South,20.7,26.5,N/A,,Clear,190,2013-12-10 00:56:00
7:56 PM,12.0,3.0,67,30.13,10.0,SSW,23.0,31.1,N/A,,Clear,210,2013-12-10 01:56:00
8:56 PM,12.9,3.9,67,30.09,10.0,SSW,25.3,33.4,N/A,,Clear,210,2013-12-10 02:56:00
9:56 PM,15.1,5.0,64,30.06,10.0,SW,25.3,32.2,N/A,,Clear,220,2013-12-10 03:56:00
10:56 PM,16.0,7.0,68,30.06,10.0,WSW,16.1,27.6,N/A,,Mostly Cloudy,240,2013-12-10 04:56:00
11:56 PM,16.0,7.0,68,30.05,10.0,SW,12.7,-,N/A,,Clear,230,2013-12-10 05:56:00